LEGR/GRX METAR and TAF weather

Enter ICAO airport designator
Station Type Date Time Source
LEGR METAR 2022/06/27 08:00 UTC NOAA

LEGR 270800Z 29005KT 240V350 CAVOK 19/06 Q1016


Station Type Date Time Source
LEGR Decoded METAR 2022/06/27 08:00 UTC NOAA

Granada / Aeropuerto, Spain (LEGR) 37-11N 003-47W 570M
Jun 27, 2022 - 04:00 AM EDT / 2022.06.27 0800 UTC
Wind: from the WNW (290 degrees) at 6 MPH (5 KT) (direction variable):0
Visibility: greater than 7 mile(s):0
Temperature: 66 F (19 C)
Dew Point: 42 F (6 C)
Relative Humidity: 42%
Pressure (altimeter): 30.00 in. Hg (1016 hPa)
ob: LEGR 270800Z 29005KT 240V350 CAVOK 19/06 Q1016
cycle: 8

Station Type Date Time Source
LEGR TAF 2022/06/27 06:27 UTC NOAA

TAF LEGR 270500Z 2706/2806 VRB02KT CAVOK TX31/2715Z TN13/2805Z
BECMG 2711/2713 27010KT
BECMG 2714/2716 33010KT
BECMG 2719/2721 24004KT

Example: see airport list